sensor_id;sensor_type;location;lat;lon;timestamp;P1;durP1;ratioP1;P2;durP2;ratioP2
85067;SDS011;75403;44.574;2.080;2024-01-30T00:02:00;2.90;;;1.33;;
85067;SDS011;75403;44.574;2.080;2024-01-30T00:04:26;4.10;;;1.50;;
85067;SDS011;75403;44.574;2.080;2024-01-30T00:06:52;4.13;;;1.60;;
85067;SDS011;75403;44.574;2.080;2024-01-30T00:09:18;3.75;;;1.30;;
85067;SDS011;75403;44.574;2.080;2024-01-30T00:11:44;4.03;;;1.50;;
85067;SDS011;75403;44.574;2.080;2024-01-30T00:14:10;3.60;;;1.48;;
85067;SDS011;75403;44.574;2.080;2024-01-30T00:16:36;3.70;;;1.40;;
85067;SDS011;75403;44.574;2.080;2024-01-30T00:19:02;3.33;;;1.40;;
85067;SDS011;75403;44.574;2.080;2024-01-30T00:21:28;3.90;;;1.50;;
85067;SDS011;75403;44.574;2.080;2024-01-30T00:23:54;4.07;;;1.58;;
85067;SDS011;75403;44.574;2.080;2024-01-30T00:26:20;3.22;;;1.40;;
85067;SDS011;75403;44.574;2.080;2024-01-30T00:28:46;4.43;;;1.60;;
85067;SDS011;75403;44.574;2.080;2024-01-30T00:31:12;3.83;;;1.48;;
85067;SDS011;75403;44.574;2.080;2024-01-30T00:33:39;4.13;;;1.60;;
85067;SDS011;75403;44.574;2.080;2024-01-30T00:36:05;3.30;;;1.43;;
85067;SDS011;75403;44.574;2.080;2024-01-30T00:38:31;3.58;;;1.50;;
85067;SDS011;75403;44.574;2.080;2024-01-30T00:40:58;3.53;;;1.50;;
85067;SDS011;75403;44.574;2.080;2024-01-30T00:43:24;3.45;;;1.50;;
85067;SDS011;75403;44.574;2.080;2024-01-30T00:45:50;4.25;;;1.60;;
85067;SDS011;75403;44.574;2.080;2024-01-30T00:48:20;3.15;;;1.40;;
85067;SDS011;75403;44.574;2.080;2024-01-30T00:50:46;4.15;;;1.60;;
85067;SDS011;75403;44.574;2.080;2024-01-30T00:53:12;4.40;;;1.50;;
85067;SDS011;75403;44.574;2.080;2024-01-30T00:55:38;3.03;;;1.20;;
85067;SDS011;75403;44.574;2.080;2024-01-30T00:58:04;3.40;;;1.40;;
85067;SDS011;75403;44.574;2.080;2024-01-30T01:00:31;3.33;;;1.30;;
85067;SDS011;75403;44.574;2.080;2024-01-30T01:03:00;3.60;;;1.40;;
85067;SDS011;75403;44.574;2.080;2024-01-30T01:05:26;3.40;;;1.50;;
85067;SDS011;75403;44.574;2.080;2024-01-30T01:07:52;3.58;;;1.50;;
85067;SDS011;75403;44.574;2.080;2024-01-30T01:10:19;3.70;;;1.50;;
85067;SDS011;75403;44.574;2.080;2024-01-30T01:12:45;3.70;;;1.30;;
85067;SDS011;75403;44.574;2.080;2024-01-30T01:15:11;3.42;;;1.40;;
85067;SDS011;75403;44.574;2.080;2024-01-30T01:17:38;3.55;;;1.60;;
85067;SDS011;75403;44.574;2.080;2024-01-30T01:20:04;3.78;;;1.40;;
85067;SDS011;75403;44.574;2.080;2024-01-30T01:22:31;3.20;;;1.40;;
85067;SDS011;75403;44.574;2.080;2024-01-30T01:24:57;3.83;;;1.50;;
85067;SDS011;75403;44.574;2.080;2024-01-30T01:27:23;3.55;;;1.45;;
85067;SDS011;75403;44.574;2.080;2024-01-30T01:29:50;3.75;;;1.50;;
85067;SDS011;75403;44.574;2.080;2024-01-30T01:32:16;4.18;;;1.50;;
85067;SDS011;75403;44.574;2.080;2024-01-30T01:34:42;3.17;;;1.40;;
85067;SDS011;75403;44.574;2.080;2024-01-30T01:37:08;4.18;;;1.55;;
85067;SDS011;75403;44.574;2.080;2024-01-30T01:39:34;3.63;;;1.50;;
85067;SDS011;75403;44.574;2.080;2024-01-30T01:42:00;3.35;;;1.40;;
85067;SDS011;75403;44.574;2.080;2024-01-30T01:44:26;3.70;;;1.50;;
85067;SDS011;75403;44.574;2.080;2024-01-30T01:46:52;3.65;;;1.50;;
85067;SDS011;75403;44.574;2.080;2024-01-30T01:49:19;3.08;;;1.38;;
85067;SDS011;75403;44.574;2.080;2024-01-30T01:51:45;3.17;;;1.40;;
85067;SDS011;75403;44.574;2.080;2024-01-30T01:54:12;3.25;;;1.40;;
85067;SDS011;75403;44.574;2.080;2024-01-30T01:56:39;3.65;;;1.55;;
85067;SDS011;75403;44.574;2.080;2024-01-30T01:59:06;3.35;;;1.35;;
85067;SDS011;75403;44.574;2.080;2024-01-30T02:01:33;2.97;;;1.30;;
85067;SDS011;75403;44.574;2.080;2024-01-30T02:04:00;3.95;;;1.45;;
85067;SDS011;75403;44.574;2.080;2024-01-30T02:06:26;3.38;;;1.52;;
85067;SDS011;75403;44.574;2.080;2024-01-30T02:08:52;4.10;;;1.60;;
85067;SDS011;75403;44.574;2.080;2024-01-30T02:11:19;3.57;;;1.40;;
85067;SDS011;75403;44.574;2.080;2024-01-30T02:13:46;3.63;;;1.50;;
85067;SDS011;75403;44.574;2.080;2024-01-30T02:16:12;3.33;;;1.45;;
85067;SDS011;75403;44.574;2.080;2024-01-30T02:18:38;3.50;;;1.50;;
85067;SDS011;75403;44.574;2.080;2024-01-30T02:21:08;3.80;;;1.50;;
85067;SDS011;75403;44.574;2.080;2024-01-30T02:23:34;3.28;;;1.40;;
85067;SDS011;75403;44.574;2.080;2024-01-30T02:26:00;3.53;;;1.40;;
85067;SDS011;75403;44.574;2.080;2024-01-30T02:28:26;3.60;;;1.42;;
85067;SDS011;75403;44.574;2.080;2024-01-30T02:30:52;3.60;;;1.50;;
85067;SDS011;75403;44.574;2.080;2024-01-30T02:33:19;3.58;;;1.50;;
85067;SDS011;75403;44.574;2.080;2024-01-30T02:35:47;3.40;;;1.40;;
85067;SDS011;75403;44.574;2.080;2024-01-30T02:38:13;3.20;;;1.50;;
85067;SDS011;75403;44.574;2.080;2024-01-30T02:40:39;3.13;;;1.30;;
85067;SDS011;75403;44.574;2.080;2024-01-30T02:43:05;3.40;;;1.42;;
85067;SDS011;75403;44.574;2.080;2024-01-30T02:45:31;2.83;;;1.40;;
85067;SDS011;75403;44.574;2.080;2024-01-30T02:47:57;3.33;;;1.30;;
85067;SDS011;75403;44.574;2.080;2024-01-30T02:50:23;3.80;;;1.50;;
85067;SDS011;75403;44.574;2.080;2024-01-30T02:52:49;3.97;;;1.37;;
85067;SDS011;75403;44.574;2.080;2024-01-30T02:55:15;3.42;;;1.50;;
85067;SDS011;75403;44.574;2.080;2024-01-30T02:57:44;3.17;;;1.50;;
85067;SDS011;75403;44.574;2.080;2024-01-30T03:00:11;3.80;;;1.40;;
85067;SDS011;75403;44.574;2.080;2024-01-30T03:02:37;2.85;;;1.35;;
85067;SDS011;75403;44.574;2.080;2024-01-30T03:05:03;3.03;;;1.40;;
85067;SDS011;75403;44.574;2.080;2024-01-30T03:07:29;3.13;;;1.30;;
85067;SDS011;75403;44.574;2.080;2024-01-30T03:09:55;3.40;;;1.50;;
85067;SDS011;75403;44.574;2.080;2024-01-30T03:12:21;3.25;;;1.40;;
85067;SDS011;75403;44.574;2.080;2024-01-30T03:14:48;3.90;;;1.40;;
85067;SDS011;75403;44.574;2.080;2024-01-30T03:17:14;3.65;;;1.48;;
85067;SDS011;75403;44.574;2.080;2024-01-30T03:19:40;3.45;;;1.40;;
85067;SDS011;75403;44.574;2.080;2024-01-30T03:22:06;3.65;;;1.40;;
85067;SDS011;75403;44.574;2.080;2024-01-30T03:24:32;3.50;;;1.48;;
85067;SDS011;75403;44.574;2.080;2024-01-30T03:26:58;3.03;;;1.38;;
85067;SDS011;75403;44.574;2.080;2024-01-30T03:29:24;3.38;;;1.40;;
85067;SDS011;75403;44.574;2.080;2024-01-30T03:31:50;3.28;;;1.40;;
85067;SDS011;75403;44.574;2.080;2024-01-30T03:34:16;2.88;;;1.30;;
85067;SDS011;75403;44.574;2.080;2024-01-30T03:36:42;3.60;;;1.43;;
85067;SDS011;75403;44.574;2.080;2024-01-30T03:39:08;3.80;;;1.50;;
85067;SDS011;75403;44.574;2.080;2024-01-30T03:41:34;3.25;;;1.40;;
85067;SDS011;75403;44.574;2.080;2024-01-30T03:44:01;4.15;;;1.50;;
85067;SDS011;75403;44.574;2.080;2024-01-30T03:46:27;3.63;;;1.50;;
85067;SDS011;75403;44.574;2.080;2024-01-30T03:48:53;3.35;;;1.40;;
85067;SDS011;75403;44.574;2.080;2024-01-30T03:51:19;3.73;;;1.37;;
85067;SDS011;75403;44.574;2.080;2024-01-30T03:53:45;3.30;;;1.40;;
85067;SDS011;75403;44.574;2.080;2024-01-30T03:56:11;3.63;;;1.30;;
85067;SDS011;75403;44.574;2.080;2024-01-30T03:58:40;3.63;;;1.40;;
85067;SDS011;75403;44.574;2.080;2024-01-30T04:01:07;3.00;;;1.40;;
85067;SDS011;75403;44.574;2.080;2024-01-30T04:03:33;3.20;;;1.45;;
85067;SDS011;75403;44.574;2.080;2024-01-30T04:05:59;3.63;;;1.48;;
85067;SDS011;75403;44.574;2.080;2024-01-30T04:08:25;2.90;;;1.33;;
85067;SDS011;75403;44.574;2.080;2024-01-30T04:10:51;3.60;;;1.50;;
85067;SDS011;75403;44.574;2.080;2024-01-30T04:13:17;4.13;;;1.45;;
85067;SDS011;75403;44.574;2.080;2024-01-30T04:15:43;3.47;;;1.47;;
85067;SDS011;75403;44.574;2.080;2024-01-30T04:18:09;3.15;;;1.40;;
85067;SDS011;75403;44.574;2.080;2024-01-30T04:20:35;3.00;;;1.40;;
85067;SDS011;75403;44.574;2.080;2024-01-30T04:23:01;3.00;;;1.30;;
85067;SDS011;75403;44.574;2.080;2024-01-30T04:25:27;4.30;;;1.50;;
85067;SDS011;75403;44.574;2.080;2024-01-30T04:27:53;3.00;;;1.30;;
85067;SDS011;75403;44.574;2.080;2024-01-30T04:30:19;3.22;;;1.30;;
85067;SDS011;75403;44.574;2.080;2024-01-30T04:32:45;3.33;;;1.40;;
85067;SDS011;75403;44.574;2.080;2024-01-30T04:35:11;3.10;;;1.35;;
85067;SDS011;75403;44.574;2.080;2024-01-30T04:37:38;3.78;;;1.30;;
85067;SDS011;75403;44.574;2.080;2024-01-30T04:40:04;3.20;;;1.40;;
85067;SDS011;75403;44.574;2.080;2024-01-30T04:42:30;3.10;;;1.30;;
85067;SDS011;75403;44.574;2.080;2024-01-30T04:44:56;3.35;;;1.48;;
85067;SDS011;75403;44.574;2.080;2024-01-30T04:47:22;2.50;;;1.10;;
85067;SDS011;75403;44.574;2.080;2024-01-30T04:49:48;3.47;;;1.40;;
85067;SDS011;75403;44.574;2.080;2024-01-30T04:52:15;3.20;;;1.30;;
85067;SDS011;75403;44.574;2.080;2024-01-30T04:54:41;3.25;;;1.40;;
85067;SDS011;75403;44.574;2.080;2024-01-30T04:57:07;3.20;;;1.35;;
85067;SDS011;75403;44.574;2.080;2024-01-30T04:59:36;2.92;;;1.30;;
85067;SDS011;75403;44.574;2.080;2024-01-30T05:02:02;3.17;;;1.40;;
85067;SDS011;75403;44.574;2.080;2024-01-30T05:04:28;3.90;;;1.35;;
85067;SDS011;75403;44.574;2.080;2024-01-30T05:06:54;3.28;;;1.40;;
85067;SDS011;75403;44.574;2.080;2024-01-30T05:09:20;3.45;;;1.30;;
85067;SDS011;75403;44.574;2.080;2024-01-30T05:11:47;3.28;;;1.45;;
85067;SDS011;75403;44.574;2.080;2024-01-30T05:14:13;4.18;;;1.40;;
85067;SDS011;75403;44.574;2.080;2024-01-30T05:16:40;2.72;;;1.30;;
85067;SDS011;75403;44.574;2.080;2024-01-30T05:19:07;2.88;;;1.40;;
85067;SDS011;75403;44.574;2.080;2024-01-30T05:21:33;3.35;;;1.30;;
85067;SDS011;75403;44.574;2.080;2024-01-30T05:23:59;3.20;;;1.35;;
85067;SDS011;75403;44.574;2.080;2024-01-30T05:26:25;3.17;;;1.30;;
85067;SDS011;75403;44.574;2.080;2024-01-30T05:28:52;3.85;;;1.50;;
85067;SDS011;75403;44.574;2.080;2024-01-30T05:31:18;3.47;;;1.38;;
85067;SDS011;75403;44.574;2.080;2024-01-30T05:33:44;3.33;;;1.50;;
85067;SDS011;75403;44.574;2.080;2024-01-30T05:36:13;3.55;;;1.42;;
85067;SDS011;75403;44.574;2.080;2024-01-30T05:38:39;2.85;;;1.27;;
85067;SDS011;75403;44.574;2.080;2024-01-30T05:41:05;2.75;;;1.30;;
85067;SDS011;75403;44.574;2.080;2024-01-30T05:43:31;3.85;;;1.48;;
85067;SDS011;75403;44.574;2.080;2024-01-30T05:45:57;2.87;;;1.40;;
85067;SDS011;75403;44.574;2.080;2024-01-30T05:48:23;3.20;;;1.25;;
85067;SDS011;75403;44.574;2.080;2024-01-30T05:50:49;2.90;;;1.30;;
85067;SDS011;75403;44.574;2.080;2024-01-30T05:53:15;3.20;;;1.23;;
85067;SDS011;75403;44.574;2.080;2024-01-30T05:55:41;3.70;;;1.40;;
85067;SDS011;75403;44.574;2.080;2024-01-30T05:58:07;3.27;;;1.40;;
85067;SDS011;75403;44.574;2.080;2024-01-30T06:00:33;3.28;;;1.30;;
85067;SDS011;75403;44.574;2.080;2024-01-30T06:02:59;3.13;;;1.30;;
85067;SDS011;75403;44.574;2.080;2024-01-30T06:05:25;3.40;;;1.50;;
85067;SDS011;75403;44.574;2.080;2024-01-30T06:07:51;2.80;;;1.30;;
85067;SDS011;75403;44.574;2.080;2024-01-30T06:10:17;2.97;;;1.30;;
85067;SDS011;75403;44.574;2.080;2024-01-30T06:12:43;3.40;;;1.40;;
85067;SDS011;75403;44.574;2.080;2024-01-30T06:15:09;3.05;;;1.20;;
85067;SDS011;75403;44.574;2.080;2024-01-30T06:17:37;3.27;;;1.37;;
85067;SDS011;75403;44.574;2.080;2024-01-30T06:20:03;3.33;;;1.40;;
85067;SDS011;75403;44.574;2.080;2024-01-30T06:22:30;2.92;;;1.40;;
85067;SDS011;75403;44.574;2.080;2024-01-30T06:24:56;7.43;;;1.40;;
85067;SDS011;75403;44.574;2.080;2024-01-30T06:27:22;4.90;;;1.50;;
85067;SDS011;75403;44.574;2.080;2024-01-30T06:29:48;6.57;;;1.58;;
85067;SDS011;75403;44.574;2.080;2024-01-30T06:32:14;5.80;;;1.30;;
85067;SDS011;75403;44.574;2.080;2024-01-30T06:34:40;4.80;;;1.42;;
85067;SDS011;75403;44.574;2.080;2024-01-30T06:37:09;4.10;;;1.30;;
85067;SDS011;75403;44.574;2.080;2024-01-30T06:39:35;4.55;;;1.45;;
85067;SDS011;75403;44.574;2.080;2024-01-30T06:42:01;9.77;;;1.60;;
85067;SDS011;75403;44.574;2.080;2024-01-30T06:44:27;5.10;;;1.50;;
85067;SDS011;75403;44.574;2.080;2024-01-30T06:46:53;5.55;;;1.38;;
85067;SDS011;75403;44.574;2.080;2024-01-30T06:49:19;6.10;;;1.73;;
85067;SDS011;75403;44.574;2.080;2024-01-30T06:51:46;5.93;;;1.40;;
85067;SDS011;75403;44.574;2.080;2024-01-30T06:54:13;7.07;;;1.57;;
85067;SDS011;75403;44.574;2.080;2024-01-30T06:56:39;6.60;;;1.50;;
85067;SDS011;75403;44.574;2.080;2024-01-30T06:59:05;4.18;;;1.40;;
85067;SDS011;75403;44.574;2.080;2024-01-30T07:01:31;4.35;;;1.58;;
85067;SDS011;75403;44.574;2.080;2024-01-30T07:03:57;4.80;;;1.55;;
85067;SDS011;75403;44.574;2.080;2024-01-30T07:06:24;4.43;;;1.70;;
85067;SDS011;75403;44.574;2.080;2024-01-30T07:08:50;3.80;;;1.50;;
85067;SDS011;75403;44.574;2.080;2024-01-30T07:11:19;3.60;;;1.50;;
85067;SDS011;75403;44.574;2.080;2024-01-30T07:13:49;4.72;;;1.38;;
85067;SDS011;75403;44.574;2.080;2024-01-30T07:16:15;4.75;;;1.50;;
85067;SDS011;75403;44.574;2.080;2024-01-30T07:18:42;5.00;;;1.50;;
85067;SDS011;75403;44.574;2.080;2024-01-30T07:21:08;4.55;;;1.70;;
85067;SDS011;75403;44.574;2.080;2024-01-30T07:23:35;5.25;;;1.60;;
85067;SDS011;75403;44.574;2.080;2024-01-30T07:26:04;5.22;;;1.55;;
85067;SDS011;75403;44.574;2.080;2024-01-30T07:28:30;4.43;;;1.40;;
85067;SDS011;75403;44.574;2.080;2024-01-30T07:30:56;4.55;;;1.63;;
85067;SDS011;75403;44.574;2.080;2024-01-30T07:33:22;4.75;;;1.40;;
85067;SDS011;75403;44.574;2.080;2024-01-30T07:35:48;5.55;;;1.50;;
85067;SDS011;75403;44.574;2.080;2024-01-30T07:38:14;4.97;;;1.53;;
85067;SDS011;75403;44.574;2.080;2024-01-30T07:40:40;3.90;;;1.40;;
85067;SDS011;75403;44.574;2.080;2024-01-30T07:43:06;4.93;;;1.58;;
85067;SDS011;75403;44.574;2.080;2024-01-30T07:45:33;4.90;;;1.55;;
85067;SDS011;75403;44.574;2.080;2024-01-30T07:47:59;4.55;;;1.50;;
85067;SDS011;75403;44.574;2.080;2024-01-30T07:50:25;3.70;;;1.50;;
85067;SDS011;75403;44.574;2.080;2024-01-30T07:52:51;4.22;;;1.45;;
85067;SDS011;75403;44.574;2.080;2024-01-30T07:55:20;3.95;;;1.60;;
85067;SDS011;75403;44.574;2.080;2024-01-30T07:57:49;4.55;;;1.40;;
85067;SDS011;75403;44.574;2.080;2024-01-30T08:00:16;5.20;;;1.50;;
85067;SDS011;75403;44.574;2.080;2024-01-30T08:02:42;4.50;;;1.60;;
85067;SDS011;75403;44.574;2.080;2024-01-30T08:05:08;4.22;;;1.50;;
85067;SDS011;75403;44.574;2.080;2024-01-30T08:07:36;4.15;;;1.60;;
85067;SDS011;75403;44.574;2.080;2024-01-30T08:10:02;4.57;;;1.60;;
85067;SDS011;75403;44.574;2.080;2024-01-30T08:12:28;4.47;;;1.52;;
85067;SDS011;75403;44.574;2.080;2024-01-30T08:14:54;4.13;;;1.60;;
85067;SDS011;75403;44.574;2.080;2024-01-30T08:17:20;3.60;;;1.50;;
85067;SDS011;75403;44.574;2.080;2024-01-30T08:19:46;4.10;;;1.60;;
85067;SDS011;75403;44.574;2.080;2024-01-30T08:22:12;4.10;;;1.52;;
85067;SDS011;75403;44.574;2.080;2024-01-30T08:24:38;4.55;;;1.70;;
85067;SDS011;75403;44.574;2.080;2024-01-30T08:27:06;3.60;;;1.40;;
85067;SDS011;75403;44.574;2.080;2024-01-30T08:29:34;3.75;;;1.55;;
85067;SDS011;75403;44.574;2.080;2024-01-30T08:32:00;3.85;;;1.50;;
85067;SDS011;75403;44.574;2.080;2024-01-30T08:34:26;3.92;;;1.50;;
85067;SDS011;75403;44.574;2.080;2024-01-30T08:36:52;5.20;;;1.77;;
85067;SDS011;75403;44.574;2.080;2024-01-30T08:39:19;4.20;;;1.47;;
85067;SDS011;75403;44.574;2.080;2024-01-30T08:41:45;3.22;;;1.52;;
85067;SDS011;75403;44.574;2.080;2024-01-30T08:44:11;3.70;;;1.40;;
85067;SDS011;75403;44.574;2.080;2024-01-30T08:46:38;3.67;;;1.40;;
85067;SDS011;75403;44.574;2.080;2024-01-30T08:49:05;4.20;;;1.60;;
85067;SDS011;75403;44.574;2.080;2024-01-30T08:51:31;3.88;;;1.40;;
85067;SDS011;75403;44.574;2.080;2024-01-30T08:53:57;3.65;;;1.50;;
85067;SDS011;75403;44.574;2.080;2024-01-30T08:56:23;4.25;;;1.38;;
85067;SDS011;75403;44.574;2.080;2024-01-30T08:58:49;4.15;;;1.60;;
85067;SDS011;75403;44.574;2.080;2024-01-30T09:01:15;3.70;;;1.58;;
85067;SDS011;75403;44.574;2.080;2024-01-30T09:03:41;4.53;;;1.60;;
85067;SDS011;75403;44.574;2.080;2024-01-30T09:06:09;3.60;;;1.52;;
85067;SDS011;75403;44.574;2.080;2024-01-30T09:08:35;4.30;;;1.48;;
85067;SDS011;75403;44.574;2.080;2024-01-30T09:11:01;3.65;;;1.50;;
85067;SDS011;75403;44.574;2.080;2024-01-30T09:13:27;3.72;;;1.60;;
85067;SDS011;75403;44.574;2.080;2024-01-30T09:15:53;3.92;;;1.58;;
85067;SDS011;75403;44.574;2.080;2024-01-30T09:18:20;3.92;;;1.50;;
85067;SDS011;75403;44.574;2.080;2024-01-30T09:20:47;3.55;;;1.50;;
85067;SDS011;75403;44.574;2.080;2024-01-30T09:23:13;3.90;;;1.52;;
85067;SDS011;75403;44.574;2.080;2024-01-30T09:25:39;4.43;;;1.60;;
85067;SDS011;75403;44.574;2.080;2024-01-30T09:28:05;3.40;;;1.40;;
85067;SDS011;75403;44.574;2.080;2024-01-30T09:30:32;3.60;;;1.60;;
85067;SDS011;75403;44.574;2.080;2024-01-30T09:32:58;3.00;;;1.40;;
85067;SDS011;75403;44.574;2.080;2024-01-30T09:35:23;3.38;;;1.52;;
85067;SDS011;75403;44.574;2.080;2024-01-30T09:37:49;4.27;;;1.57;;
85067;SDS011;75403;44.574;2.080;2024-01-30T09:40:17;4.23;;;1.60;;
85067;SDS011;75403;44.574;2.080;2024-01-30T09:42:44;3.63;;;1.60;;
85067;SDS011;75403;44.574;2.080;2024-01-30T09:45:11;3.47;;;1.52;;
85067;SDS011;75403;44.574;2.080;2024-01-30T09:47:40;3.53;;;1.60;;
85067;SDS011;75403;44.574;2.080;2024-01-30T09:50:10;4.20;;;1.42;;
85067;SDS011;75403;44.574;2.080;2024-01-30T09:52:36;3.40;;;1.50;;
85067;SDS011;75403;44.574;2.080;2024-01-30T09:55:02;3.40;;;1.45;;
85067;SDS011;75403;44.574;2.080;2024-01-30T09:57:29;3.67;;;1.60;;
85067;SDS011;75403;44.574;2.080;2024-01-30T09:59:55;3.42;;;1.60;;
85067;SDS011;75403;44.574;2.080;2024-01-30T10:02:21;3.25;;;1.40;;
85067;SDS011;75403;44.574;2.080;2024-01-30T10:04:50;5.00;;;1.70;;
85067;SDS011;75403;44.574;2.080;2024-01-30T10:07:17;3.63;;;1.60;;
85067;SDS011;75403;44.574;2.080;2024-01-30T10:09:43;3.80;;;1.50;;
85067;SDS011;75403;44.574;2.080;2024-01-30T10:12:09;4.28;;;1.50;;
85067;SDS011;75403;44.574;2.080;2024-01-30T10:14:39;3.50;;;1.48;;
85067;SDS011;75403;44.574;2.080;2024-01-30T10:17:06;3.28;;;1.45;;
85067;SDS011;75403;44.574;2.080;2024-01-30T10:19:32;4.60;;;1.35;;
85067;SDS011;75403;44.574;2.080;2024-01-30T10:22:02;3.33;;;1.35;;
85067;SDS011;75403;44.574;2.080;2024-01-30T10:24:28;3.60;;;1.50;;
85067;SDS011;75403;44.574;2.080;2024-01-30T10:26:57;3.90;;;1.42;;
85067;SDS011;75403;44.574;2.080;2024-01-30T10:29:23;3.40;;;1.40;;
85067;SDS011;75403;44.574;2.080;2024-01-30T10:32:02;4.20;;;1.40;;
85067;SDS011;75403;44.574;2.080;2024-01-30T10:34:29;3.47;;;1.50;;
85067;SDS011;75403;44.574;2.080;2024-01-30T10:39:24;3.45;;;1.60;;
85067;SDS011;75403;44.574;2.080;2024-01-30T10:41:50;3.28;;;1.40;;
85067;SDS011;75403;44.574;2.080;2024-01-30T10:44:19;3.58;;;1.50;;
85067;SDS011;75403;44.574;2.080;2024-01-30T10:46:45;4.70;;;1.40;;
85067;SDS011;75403;44.574;2.080;2024-01-30T10:49:15;3.00;;;1.30;;
85067;SDS011;75403;44.574;2.080;2024-01-30T10:51:41;3.13;;;1.23;;
85067;SDS011;75403;44.574;2.080;2024-01-30T10:54:07;3.20;;;1.30;;
85067;SDS011;75403;44.574;2.080;2024-01-30T10:56:34;3.30;;;1.40;;
85067;SDS011;75403;44.574;2.080;2024-01-30T10:59:00;3.47;;;1.30;;
85067;SDS011;75403;44.574;2.080;2024-01-30T11:01:27;3.97;;;1.40;;
85067;SDS011;75403;44.574;2.080;2024-01-30T11:03:54;3.25;;;1.30;;
85067;SDS011;75403;44.574;2.080;2024-01-30T11:06:24;2.78;;;1.23;;
85067;SDS011;75403;44.574;2.080;2024-01-30T11:09:00;3.38;;;1.50;;
85067;SDS011;75403;44.574;2.080;2024-01-30T11:11:28;3.55;;;1.38;;
85067;SDS011;75403;44.574;2.080;2024-01-30T11:13:54;3.22;;;1.50;;
85067;SDS011;75403;44.574;2.080;2024-01-30T11:16:20;3.60;;;1.60;;
85067;SDS011;75403;44.574;2.080;2024-01-30T11:18:50;3.03;;;1.30;;
85067;SDS011;75403;44.574;2.080;2024-01-30T11:21:16;3.92;;;1.40;;
85067;SDS011;75403;44.574;2.080;2024-01-30T11:23:42;3.13;;;1.50;;
85067;SDS011;75403;44.574;2.080;2024-01-30T11:26:11;3.40;;;1.50;;
85067;SDS011;75403;44.574;2.080;2024-01-30T11:28:38;3.70;;;1.40;;
85067;SDS011;75403;44.574;2.080;2024-01-30T11:31:07;4.13;;;1.42;;
85067;SDS011;75403;44.574;2.080;2024-01-30T11:33:33;4.60;;;1.40;;
85067;SDS011;75403;44.574;2.080;2024-01-30T11:35:59;3.05;;;1.40;;
85067;SDS011;75403;44.574;2.080;2024-01-30T11:38:26;3.40;;;1.50;;
85067;SDS011;75403;44.574;2.080;2024-01-30T11:40:53;3.38;;;1.40;;
85067;SDS011;75403;44.574;2.080;2024-01-30T11:43:21;4.50;;;1.52;;
85067;SDS011;75403;44.574;2.080;2024-01-30T11:45:47;3.80;;;1.40;;
85067;SDS011;75403;44.574;2.080;2024-01-30T11:48:13;4.60;;;1.60;;
85067;SDS011;75403;44.574;2.080;2024-01-30T11:50:39;3.25;;;1.40;;
85067;SDS011;75403;44.574;2.080;2024-01-30T11:53:11;7.10;;;2.40;;
85067;SDS011;75403;44.574;2.080;2024-01-30T11:55:37;7.68;;;2.70;;
85067;SDS011;75403;44.574;2.080;2024-01-30T11:58:04;9.43;;;2.90;;
85067;SDS011;75403;44.574;2.080;2024-01-30T12:00:30;9.25;;;2.90;;
85067;SDS011;75403;44.574;2.080;2024-01-30T12:02:56;7.18;;;2.40;;
85067;SDS011;75403;44.574;2.080;2024-01-30T12:05:22;7.13;;;2.57;;
85067;SDS011;75403;44.574;2.080;2024-01-30T12:07:49;8.15;;;2.50;;
85067;SDS011;75403;44.574;2.080;2024-01-30T12:10:15;10.13;;;2.47;;
85067;SDS011;75403;44.574;2.080;2024-01-30T12:12:42;7.65;;;2.33;;
85067;SDS011;75403;44.574;2.080;2024-01-30T12:15:08;7.72;;;2.42;;
85067;SDS011;75403;44.574;2.080;2024-01-30T12:17:35;120.27;;;6.60;;
85067;SDS011;75403;44.574;2.080;2024-01-30T12:20:05;9.15;;;2.63;;
85067;SDS011;75403;44.574;2.080;2024-01-30T12:22:33;8.30;;;2.72;;
85067;SDS011;75403;44.574;2.080;2024-01-30T12:24:59;7.53;;;2.43;;
85067;SDS011;75403;44.574;2.080;2024-01-30T12:27:26;7.15;;;2.80;;
85067;SDS011;75403;44.574;2.080;2024-01-30T12:29:55;7.72;;;2.58;;
85067;SDS011;75403;44.574;2.080;2024-01-30T12:32:22;9.57;;;2.90;;
85067;SDS011;75403;44.574;2.080;2024-01-30T12:34:48;8.73;;;2.70;;
85067;SDS011;75403;44.574;2.080;2024-01-30T12:37:14;6.57;;;2.50;;
85067;SDS011;75403;44.574;2.080;2024-01-30T12:39:47;7.22;;;2.58;;
85067;SDS011;75403;44.574;2.080;2024-01-30T12:42:13;7.88;;;2.60;;
85067;SDS011;75403;44.574;2.080;2024-01-30T12:44:40;9.40;;;2.75;;
85067;SDS011;75403;44.574;2.080;2024-01-30T12:47:08;8.30;;;3.03;;
85067;SDS011;75403;44.574;2.080;2024-01-30T12:49:35;8.52;;;2.60;;
85067;SDS011;75403;44.574;2.080;2024-01-30T12:52:01;7.93;;;2.30;;
85067;SDS011;75403;44.574;2.080;2024-01-30T12:54:27;7.10;;;2.40;;
85067;SDS011;75403;44.574;2.080;2024-01-30T12:56:54;7.82;;;2.50;;
85067;SDS011;75403;44.574;2.080;2024-01-30T12:59:21;6.25;;;2.35;;
85067;SDS011;75403;44.574;2.080;2024-01-30T13:01:47;7.88;;;2.40;;
85067;SDS011;75403;44.574;2.080;2024-01-30T13:04:13;7.82;;;2.40;;
85067;SDS011;75403;44.574;2.080;2024-01-30T13:06:40;6.78;;;2.40;;
85067;SDS011;75403;44.574;2.080;2024-01-30T13:09:06;6.68;;;2.65;;
85067;SDS011;75403;44.574;2.080;2024-01-30T13:11:32;8.27;;;2.92;;
85067;SDS011;75403;44.574;2.080;2024-01-30T13:13:59;7.55;;;2.78;;
85067;SDS011;75403;44.574;2.080;2024-01-30T13:16:25;5.95;;;2.45;;
85067;SDS011;75403;44.574;2.080;2024-01-30T13:18:51;9.88;;;3.08;;
85067;SDS011;75403;44.574;2.080;2024-01-30T13:21:17;7.57;;;2.47;;
85067;SDS011;75403;44.574;2.080;2024-01-30T13:23:43;8.10;;;2.50;;
85067;SDS011;75403;44.574;2.080;2024-01-30T13:26:09;5.22;;;2.00;;
85067;SDS011;75403;44.574;2.080;2024-01-30T13:28:35;5.70;;;2.40;;
85067;SDS011;75403;44.574;2.080;2024-01-30T13:31:01;5.75;;;2.38;;
85067;SDS011;75403;44.574;2.080;2024-01-30T13:33:27;8.30;;;3.38;;
85067;SDS011;75403;44.574;2.080;2024-01-30T13:35:53;8.80;;;3.10;;
85067;SDS011;75403;44.574;2.080;2024-01-30T13:38:19;8.65;;;2.80;;
85067;SDS011;75403;44.574;2.080;2024-01-30T13:40:45;6.63;;;2.70;;
85067;SDS011;75403;44.574;2.080;2024-01-30T13:43:12;8.23;;;2.70;;
85067;SDS011;75403;44.574;2.080;2024-01-30T13:45:38;8.52;;;2.70;;
85067;SDS011;75403;44.574;2.080;2024-01-30T13:48:04;8.20;;;3.10;;
85067;SDS011;75403;44.574;2.080;2024-01-30T13:50:30;8.00;;;2.90;;
85067;SDS011;75403;44.574;2.080;2024-01-30T13:52:58;5.95;;;2.40;;
85067;SDS011;75403;44.574;2.080;2024-01-30T13:55:24;7.60;;;2.57;;
85067;SDS011;75403;44.574;2.080;2024-01-30T13:57:50;7.85;;;2.40;;
85067;SDS011;75403;44.574;2.080;2024-01-30T14:00:16;7.05;;;2.60;;
85067;SDS011;75403;44.574;2.080;2024-01-30T14:02:43;9.10;;;2.67;;
85067;SDS011;75403;44.574;2.080;2024-01-30T14:05:09;5.70;;;2.30;;
85067;SDS011;75403;44.574;2.080;2024-01-30T14:07:35;6.10;;;2.20;;
85067;SDS011;75403;44.574;2.080;2024-01-30T14:10:01;8.40;;;2.50;;
85067;SDS011;75403;44.574;2.080;2024-01-30T14:12:27;7.45;;;2.40;;
85067;SDS011;75403;44.574;2.080;2024-01-30T14:14:55;5.43;;;2.40;;
85067;SDS011;75403;44.574;2.080;2024-01-30T14:17:21;6.40;;;2.00;;
85067;SDS011;75403;44.574;2.080;2024-01-30T14:19:47;5.38;;;2.22;;
85067;SDS011;75403;44.574;2.080;2024-01-30T14:22:13;6.05;;;2.22;;
85067;SDS011;75403;44.574;2.080;2024-01-30T14:24:39;6.90;;;2.40;;
85067;SDS011;75403;44.574;2.080;2024-01-30T14:27:05;5.93;;;2.28;;
85067;SDS011;75403;44.574;2.080;2024-01-30T14:29:32;5.75;;;2.15;;
85067;SDS011;75403;44.574;2.080;2024-01-30T14:31:59;5.15;;;2.00;;
85067;SDS011;75403;44.574;2.080;2024-01-30T14:34:25;5.20;;;1.92;;
85067;SDS011;75403;44.574;2.080;2024-01-30T14:36:52;6.13;;;2.35;;
85067;SDS011;75403;44.574;2.080;2024-01-30T14:39:18;6.60;;;2.20;;
85067;SDS011;75403;44.574;2.080;2024-01-30T14:41:44;6.07;;;2.28;;
85067;SDS011;75403;44.574;2.080;2024-01-30T14:44:10;6.07;;;2.10;;
85067;SDS011;75403;44.574;2.080;2024-01-30T14:46:36;5.80;;;2.17;;